Watrous, Pennsylvania
Current Conditions -  °F | °C
As of 8:55 AM on Monday 22 Dec 2014 (Local Time) from KN38 Reporting Station
Overcast Overcast  
Wind Chill: 14°   Ceiling: 700
Heat Index: 23°   Visibility: 9mi
Dew Point: 21°   Wind: 8mph
Humidity: 93%   Direction: 190°S
Pressure: 30.22"   Gusts: NA
Location:  41.6649°N, 77.5403°W
Report Text: KN38 221355Z AUTO 19007KT 9SM OVC007 M05/M06 A3022 RMK AO2
Loading
Personal Weather Stations






























Interactive Weather Map New forecast layout! Learn more

10-Day Weather Forecast

Advertisements
Track Severe Weather on mobile